sensor_id;sensor_type;location;lat;lon;timestamp;pressure;altitude;pressure_sealevel;temperature;humidity
68871;BME280;55906;52.278;6.808;2023-02-19T00:00:10;101512.69;;;10.37;100.00
68871;BME280;55906;52.278;6.808;2023-02-19T00:02:39;101510.88;;;10.36;100.00
68871;BME280;55906;52.278;6.808;2023-02-19T00:05:06;101505.75;;;10.39;100.00
68871;BME280;55906;52.278;6.808;2023-02-19T00:07:33;101506.63;;;10.39;100.00
68871;BME280;55906;52.278;6.808;2023-02-19T00:09:59;101499.59;;;10.38;100.00
68871;BME280;55906;52.278;6.808;2023-02-19T00:12:26;101500.47;;;10.39;100.00
68871;BME280;55906;52.278;6.808;2023-02-19T00:14:54;101505.75;;;10.39;100.00
68871;BME280;55906;52.278;6.808;2023-02-19T00:17:21;101504.84;;;10.38;100.00
68871;BME280;55906;52.278;6.808;2023-02-19T00:19:48;101507.53;;;10.40;100.00
68871;BME280;55906;52.278;6.808;2023-02-19T00:22:15;101507.69;;;10.43;100.00
68871;BME280;55906;52.278;6.808;2023-02-19T00:24:41;101507.53;;;10.40;100.00
68871;BME280;55906;52.278;6.808;2023-02-19T00:27:08;101503.06;;;10.37;100.00
68871;BME280;55906;52.278;6.808;2023-02-19T00:29:34;101502.28;;;10.40;100.00
68871;BME280;55906;52.278;6.808;2023-02-19T00:32:03;101502.22;;;10.38;100.00
68871;BME280;55906;52.278;6.808;2023-02-19T00:34:29;101508.31;;;10.37;100.00
68871;BME280;55906;52.278;6.808;2023-02-19T00:36:56;101511.16;;;10.42;100.00
68871;BME280;55906;52.278;6.808;2023-02-19T00:39:22;101504.00;;;10.39;100.00
68871;BME280;55906;52.278;6.808;2023-02-19T00:41:49;101500.56;;;10.40;100.00
68871;BME280;55906;52.278;6.808;2023-02-19T00:44:16;101501.56;;;10.44;100.00
68871;BME280;55906;52.278;6.808;2023-02-19T00:46:45;101503.31;;;10.43;100.00
68871;BME280;55906;52.278;6.808;2023-02-19T00:49:16;101507.69;;;10.43;100.00
68871;BME280;55906;52.278;6.808;2023-02-19T00:51:43;101499.84;;;10.44;100.00
68871;BME280;55906;52.278;6.808;2023-02-19T00:54:10;101497.16;;;10.43;100.00
68871;BME280;55906;52.278;6.808;2023-02-19T00:56:37;101505.94;;;10.43;100.00
68871;BME280;55906;52.278;6.808;2023-02-19T00:59:04;101503.38;;;10.45;100.00
68871;BME280;55906;52.278;6.808;2023-02-19T01:01:30;101505.09;;;10.44;100.00
68871;BME280;55906;52.278;6.808;2023-02-19T01:03:57;101505.09;;;10.44;100.00
68871;BME280;55906;52.278;6.808;2023-02-19T01:06:25;101514.84;;;10.47;100.00
68871;BME280;55906;52.278;6.808;2023-02-19T01:08:54;101506.94;;;10.47;100.00
68871;BME280;55906;52.278;6.808;2023-02-19T01:11:20;101504.31;;;10.47;100.00
68871;BME280;55906;52.278;6.808;2023-02-19T01:13:47;101507.91;;;10.49;100.00
68871;BME280;55906;52.278;6.808;2023-02-19T01:16:16;101498.22;;;10.48;100.00
68871;BME280;55906;52.278;6.808;2023-02-19T01:18:43;101499.94;;;10.47;100.00
68871;BME280;55906;52.278;6.808;2023-02-19T01:21:13;101502.75;;;10.52;100.00
68871;BME280;55906;52.278;6.808;2023-02-19T01:23:41;101508.00;;;10.52;100.00
68871;BME280;55906;52.278;6.808;2023-02-19T01:26:11;101510.59;;;10.50;100.00
68871;BME280;55906;52.278;6.808;2023-02-19T01:28:38;101508.84;;;10.51;100.00
68871;BME280;55906;52.278;6.808;2023-02-19T01:31:07;101503.59;;;10.51;100.00
68871;BME280;55906;52.278;6.808;2023-02-19T01:33:35;101507.13;;;10.51;100.00
68871;BME280;55906;52.278;6.808;2023-02-19T01:36:03;101514.16;;;10.52;100.00
68871;BME280;55906;52.278;6.808;2023-02-19T01:38:30;101515.06;;;10.53;100.00
68871;BME280;55906;52.278;6.808;2023-02-19T01:40:59;101505.38;;;10.52;99.63
68871;BME280;55906;52.278;6.808;2023-02-19T01:43:27;101501.00;;;10.52;99.73
68871;BME280;55906;52.278;6.808;2023-02-19T01:45:53;101510.59;;;10.50;99.67
68871;BME280;55906;52.278;6.808;2023-02-19T01:48:24;101506.22;;;10.51;99.42
68871;BME280;55906;52.278;6.808;2023-02-19T01:50:54;101509.75;;;10.51;98.90
68871;BME280;55906;52.278;6.808;2023-02-19T01:53:25;101509.84;;;10.54;99.14
68871;BME280;55906;52.278;6.808;2023-02-19T01:55:55;101507.22;;;10.54;99.51
68871;BME280;55906;52.278;6.808;2023-02-19T01:58:27;101503.69;;;10.54;99.45
68871;BME280;55906;52.278;6.808;2023-02-19T02:00:55;101512.44;;;10.53;99.23
68871;BME280;55906;52.278;6.808;2023-02-19T02:03:22;101508.00;;;10.52;99.74
68871;BME280;55906;52.278;6.808;2023-02-19T02:05:55;101504.31;;;10.47;99.76
68871;BME280;55906;52.278;6.808;2023-02-19T02:08:23;101517.47;;;10.47;100.00
68871;BME280;55906;52.278;6.808;2023-02-19T02:11:09;101518.19;;;10.43;99.92
68871;BME280;55906;52.278;6.808;2023-02-19T02:13:37;101525.25;;;10.44;99.93
68871;BME280;55906;52.278;6.808;2023-02-19T02:16:15;101526.88;;;10.40;99.74
68871;BME280;55906;52.278;6.808;2023-02-19T02:18:53;101522.56;;;10.42;99.77
68871;BME280;55906;52.278;6.808;2023-02-19T02:21:49;101518.97;;;10.40;99.26
68871;BME280;55906;52.278;6.808;2023-02-19T02:27:33;101523.19;;;10.37;99.86
68871;BME280;55906;52.278;6.808;2023-02-19T02:30:11;101518.84;;;10.37;99.66
68871;BME280;55906;52.278;6.808;2023-02-19T02:32:44;101520.47;;;10.34;99.16
68871;BME280;55906;52.278;6.808;2023-02-19T02:35:19;101531.75;;;10.31;99.27
68871;BME280;55906;52.278;6.808;2023-02-19T02:37:48;101530.03;;;10.32;98.72
68871;BME280;55906;52.278;6.808;2023-02-19T02:40:16;101530.88;;;10.31;98.88
68871;BME280;55906;52.278;6.808;2023-02-19T02:42:43;101522.75;;;10.24;99.46
68871;BME280;55906;52.278;6.808;2023-02-19T02:45:26;101527.06;;;10.22;99.33
68871;BME280;55906;52.278;6.808;2023-02-19T02:48:32;101533.00;;;10.18;99.98
68871;BME280;55906;52.278;6.808;2023-02-19T02:51:05;101525.81;;;10.14;99.98
68871;BME280;55906;52.278;6.808;2023-02-19T02:53:36;101526.78;;;10.16;99.54
68871;BME280;55906;52.278;6.808;2023-02-19T02:56:24;101517.94;;;10.14;99.53
68871;BME280;55906;52.278;6.808;2023-02-19T02:58:52;101527.69;;;10.17;99.36
68871;BME280;55906;52.278;6.808;2023-02-19T03:01:23;101517.94;;;10.14;99.12
68871;BME280;55906;52.278;6.808;2023-02-19T03:04:11;101531.97;;;10.15;99.10
68871;BME280;55906;52.278;6.808;2023-02-19T03:06:39;101537.97;;;10.11;98.83
68871;BME280;55906;52.278;6.808;2023-02-19T03:09:10;101536.28;;;10.13;99.55
68871;BME280;55906;52.278;6.808;2023-02-19T03:11:40;101543.34;;;10.14;98.93
68871;BME280;55906;52.278;6.808;2023-02-19T03:14:30;101546.75;;;10.11;99.40
68871;BME280;55906;52.278;6.808;2023-02-19T03:17:21;101547.69;;;10.13;99.02
68871;BME280;55906;52.278;6.808;2023-02-19T03:20:09;101549.50;;;10.14;98.98
68871;BME280;55906;52.278;6.808;2023-02-19T03:22:40;101549.56;;;10.16;98.65
68871;BME280;55906;52.278;6.808;2023-02-19T03:25:09;101559.13;;;10.14;97.98
68871;BME280;55906;52.278;6.808;2023-02-19T03:27:56;101553.69;;;10.09;98.39
68871;BME280;55906;52.278;6.808;2023-02-19T03:30:27;101545.66;;;10.06;98.39
68871;BME280;55906;52.278;6.808;2023-02-19T03:32:59;101560.72;;;10.10;98.29
68871;BME280;55906;52.278;6.808;2023-02-19T03:35:30;101562.53;;;10.11;98.22
68871;BME280;55906;52.278;6.808;2023-02-19T03:38:01;101563.34;;;10.10;98.03
68871;BME280;55906;52.278;6.808;2023-02-19T03:40:30;101569.44;;;10.09;97.74
68871;BME280;55906;52.278;6.808;2023-02-19T03:43:03;101571.25;;;10.10;97.36
68871;BME280;55906;52.278;6.808;2023-02-19T03:45:41;101576.44;;;10.09;97.74
68871;BME280;55906;52.278;6.808;2023-02-19T03:48:27;101580.81;;;10.08;97.85
68871;BME280;55906;52.278;6.808;2023-02-19T03:51:02;101577.22;;;10.06;98.12
68871;BME280;55906;52.278;6.808;2023-02-19T03:53:34;101586.00;;;10.07;97.27
68871;BME280;55906;52.278;6.808;2023-02-19T03:56:08;101580.75;;;10.07;97.67
68871;BME280;55906;52.278;6.808;2023-02-19T03:58:40;101586.91;;;10.07;97.17
68871;BME280;55906;52.278;6.808;2023-02-19T04:01:13;101593.81;;;10.05;97.30
68871;BME280;55906;52.278;6.808;2023-02-19T04:03:45;101592.94;;;10.05;96.69
68871;BME280;55906;52.278;6.808;2023-02-19T04:06:19;101606.00;;;10.03;96.91
68871;BME280;55906;52.278;6.808;2023-02-19T04:08:48;101602.66;;;10.07;96.89
68871;BME280;55906;52.278;6.808;2023-02-19T04:11:18;101604.47;;;10.08;96.46
68871;BME280;55906;52.278;6.808;2023-02-19T04:13:50;101605.25;;;10.06;96.66
68871;BME280;55906;52.278;6.808;2023-02-19T04:16:21;101612.28;;;10.07;96.10
68871;BME280;55906;52.278;6.808;2023-02-19T04:18:54;101619.28;;;10.06;96.27
68871;BME280;55906;52.278;6.808;2023-02-19T04:21:23;101621.91;;;10.06;96.54
68871;BME280;55906;52.278;6.808;2023-02-19T04:23:50;101624.66;;;10.09;95.59
68871;BME280;55906;52.278;6.808;2023-02-19T04:26:19;101628.19;;;10.10;95.61
68871;BME280;55906;52.278;6.808;2023-02-19T04:28:47;101630.81;;;10.10;95.36
68871;BME280;55906;52.278;6.808;2023-02-19T04:31:13;101636.97;;;10.10;95.39
68871;BME280;55906;52.278;6.808;2023-02-19T04:33:40;101639.72;;;10.13;95.73
68871;BME280;55906;52.278;6.808;2023-02-19T04:36:09;101639.59;;;10.10;95.67
68871;BME280;55906;52.278;6.808;2023-02-19T04:38:36;101645.75;;;10.11;95.46
68871;BME280;55906;52.278;6.808;2023-02-19T04:41:03;101645.75;;;10.11;95.14
68871;BME280;55906;52.278;6.808;2023-02-19T04:43:29;101645.81;;;10.12;95.17
68871;BME280;55906;52.278;6.808;2023-02-19T04:45:58;101648.50;;;10.14;95.04
68871;BME280;55906;52.278;6.808;2023-02-19T04:48:25;101653.56;;;10.09;95.40
68871;BME280;55906;52.278;6.808;2023-02-19T04:50:52;101664.34;;;10.15;95.42
68871;BME280;55906;52.278;6.808;2023-02-19T04:53:20;101665.00;;;10.10;95.69
68871;BME280;55906;52.278;6.808;2023-02-19T04:55:46;101661.72;;;10.15;95.67
68871;BME280;55906;52.278;6.808;2023-02-19T04:58:17;101660.88;;;10.16;96.21
68871;BME280;55906;52.278;6.808;2023-02-19T05:00:44;101674.03;;;10.16;95.94
68871;BME280;55906;52.278;6.808;2023-02-19T05:03:11;101674.03;;;10.16;95.89
68871;BME280;55906;52.278;6.808;2023-02-19T05:05:37;101682.56;;;10.11;96.18
68871;BME280;55906;52.278;6.808;2023-02-19T05:08:04;101677.88;;;10.04;96.70
68871;BME280;55906;52.278;6.808;2023-02-19T05:10:32;101684.09;;;10.06;96.43
68871;BME280;55906;52.278;6.808;2023-02-19T05:12:59;101691.94;;;10.04;96.61
68871;BME280;55906;52.278;6.808;2023-02-19T05:15:25;101696.22;;;10.02;96.65
68871;BME280;55906;52.278;6.808;2023-02-19T05:17:52;101701.53;;;10.04;96.75
68871;BME280;55906;52.278;6.808;2023-02-19T05:20:18;101701.47;;;10.02;97.03
68871;BME280;55906;52.278;6.808;2023-02-19T05:22:47;101701.47;;;10.02;96.66
68871;BME280;55906;52.278;6.808;2023-02-19T05:25:13;101705.91;;;10.03;96.60
68871;BME280;55906;52.278;6.808;2023-02-19T05:27:41;101703.28;;;10.03;96.11
68871;BME280;55906;52.278;6.808;2023-02-19T05:30:09;101708.41;;;10.00;96.16
68871;BME280;55906;52.278;6.808;2023-02-19T05:32:36;101717.97;;;9.98;96.37
68871;BME280;55906;52.278;6.808;2023-02-19T05:35:03;101715.41;;;10.00;95.81
68871;BME280;55906;52.278;6.808;2023-02-19T05:37:30;101723.22;;;9.98;95.64
68871;BME280;55906;52.278;6.808;2023-02-19T05:39:56;101712.69;;;9.98;95.74
68871;BME280;55906;52.278;6.808;2023-02-19T05:42:23;101729.38;;;9.99;95.64
68871;BME280;55906;52.278;6.808;2023-02-19T05:44:51;101723.34;;;10.01;95.37
68871;BME280;55906;52.278;6.808;2023-02-19T05:47:17;101726.81;;;10.00;95.63
68871;BME280;55906;52.278;6.808;2023-02-19T05:49:44;101722.38;;;9.99;95.59
68871;BME280;55906;52.278;6.808;2023-02-19T05:52:10;101727.63;;;9.99;95.54
68871;BME280;55906;52.278;6.808;2023-02-19T05:54:37;101730.34;;;10.01;95.30
68871;BME280;55906;52.278;6.808;2023-02-19T05:57:04;101726.16;;;10.06;94.48
68871;BME280;55906;52.278;6.808;2023-02-19T05:59:30;101729.56;;;10.03;94.26
68871;BME280;55906;52.278;6.808;2023-02-19T06:01:58;101734.81;;;10.03;93.74
68871;BME280;55906;52.278;6.808;2023-02-19T06:04:25;101734.94;;;10.06;93.86
68871;BME280;55906;52.278;6.808;2023-02-19T06:06:51;101736.56;;;10.03;93.97
68871;BME280;55906;52.278;6.808;2023-02-19T06:09:18;101743.47;;;10.01;93.89
68871;BME280;55906;52.278;6.808;2023-02-19T06:11:45;101746.03;;;9.99;93.92
68871;BME280;55906;52.278;6.808;2023-02-19T06:14:12;101748.66;;;9.99;93.36
68871;BME280;55906;52.278;6.808;2023-02-19T06:16:39;101754.88;;;10.01;93.77
68871;BME280;55906;52.278;6.808;2023-02-19T06:19:07;101761.81;;;9.99;93.80
68871;BME280;55906;52.278;6.808;2023-02-19T06:21:34;101767.06;;;9.99;93.99
68871;BME280;55906;52.278;6.808;2023-02-19T06:24:04;101764.50;;;10.01;93.91
68871;BME280;55906;52.278;6.808;2023-02-19T06:26:31;101769.81;;;10.02;93.66
68871;BME280;55906;52.278;6.808;2023-02-19T06:28:57;101779.13;;;9.94;94.34
68871;BME280;55906;52.278;6.808;2023-02-19T06:31:24;101786.09;;;9.93;93.53
68871;BME280;55906;52.278;6.808;2023-02-19T06:33:51;101782.38;;;9.88;93.93
68871;BME280;55906;52.278;6.808;2023-02-19T06:36:21;101801.59;;;9.87;93.67
68871;BME280;55906;52.278;6.808;2023-02-19T06:38:48;101805.13;;;9.88;93.55
68871;BME280;55906;52.278;6.808;2023-02-19T06:41:15;101806.94;;;9.89;93.92
68871;BME280;55906;52.278;6.808;2023-02-19T06:43:42;101813.84;;;9.87;94.08
68871;BME280;55906;52.278;6.808;2023-02-19T06:46:10;101823.25;;;9.82;94.52
68871;BME280;55906;52.278;6.808;2023-02-19T06:48:38;101825.75;;;9.79;94.46
68871;BME280;55906;52.278;6.808;2023-02-19T06:51:05;101822.03;;;9.74;95.02
68871;BME280;55906;52.278;6.808;2023-02-19T06:53:33;101832.53;;;9.74;94.91
68871;BME280;55906;52.278;6.808;2023-02-19T06:56:02;101830.66;;;9.71;94.97
68871;BME280;55906;52.278;6.808;2023-02-19T06:58:29;101841.94;;;9.69;95.43
68871;BME280;55906;52.278;6.808;2023-02-19T07:00:56;101853.13;;;9.65;95.88
68871;BME280;55906;52.278;6.808;2023-02-19T07:03:23;101854.72;;;9.61;95.92
68871;BME280;55906;52.278;6.808;2023-02-19T07:05:50;101867.94;;;9.62;96.15
68871;BME280;55906;52.278;6.808;2023-02-19T07:08:17;101875.66;;;9.59;96.51
68871;BME280;55906;52.278;6.808;2023-02-19T07:10:45;101871.19;;;9.57;96.81
68871;BME280;55906;52.278;6.808;2023-02-19T07:13:12;101869.66;;;9.62;96.56
68871;BME280;55906;52.278;6.808;2023-02-19T07:15:38;101874.78;;;9.59;96.83
68871;BME280;55906;52.278;6.808;2023-02-19T07:18:05;101869.94;;;9.49;97.21
68871;BME280;55906;52.278;6.808;2023-02-19T07:20:34;101874.34;;;9.50;97.28
68871;BME280;55906;52.278;6.808;2023-02-19T07:23:01;101883.34;;;9.55;96.63
68871;BME280;55906;52.278;6.808;2023-02-19T07:25:28;101887.69;;;9.54;96.95
68871;BME280;55906;52.278;6.808;2023-02-19T07:27:56;101898.97;;;9.52;97.16
68871;BME280;55906;52.278;6.808;2023-02-19T07:30:22;101902.34;;;9.49;97.24
68871;BME280;55906;52.278;6.808;2023-02-19T07:32:49;101907.75;;;9.52;97.24
68871;BME280;55906;52.278;6.808;2023-02-19T07:35:16;101906.63;;;9.47;97.47
68871;BME280;55906;52.278;6.808;2023-02-19T07:37:42;101913.06;;;9.54;97.59
68871;BME280;55906;52.278;6.808;2023-02-19T07:40:09;101919.72;;;9.65;96.92
68871;BME280;55906;52.278;6.808;2023-02-19T07:42:36;101921.63;;;9.50;97.67
68871;BME280;55906;52.278;6.808;2023-02-19T07:45:04;101928.81;;;9.54;96.85
68871;BME280;55906;52.278;6.808;2023-02-19T07:47:31;101927.34;;;9.41;97.02
68871;BME280;55906;52.278;6.808;2023-02-19T07:49:58;101929.75;;;9.37;95.66
68871;BME280;55906;52.278;6.808;2023-02-19T07:52:24;101940.78;;;9.29;94.99
68871;BME280;55906;52.278;6.808;2023-02-19T07:54:51;101947.47;;;9.23;94.78
68871;BME280;55906;52.278;6.808;2023-02-19T07:57:18;101945.75;;;9.23;94.88
68871;BME280;55906;52.278;6.808;2023-02-19T07:59:44;101951.13;;;9.09;93.72
68871;BME280;55906;52.278;6.808;2023-02-19T08:02:16;101962.34;;;9.22;94.97
68871;BME280;55906;52.278;6.808;2023-02-19T08:04:59;101962.25;;;9.21;94.65
68871;BME280;55906;52.278;6.808;2023-02-19T08:07:30;101972.06;;;9.25;94.18
68871;BME280;55906;52.278;6.808;2023-02-19T08:09:56;101985.81;;;9.19;94.66
68871;BME280;55906;52.278;6.808;2023-02-19T08:12:54;101985.09;;;9.06;94.24
68871;BME280;55906;52.278;6.808;2023-02-19T08:15:38;101987.94;;;8.92;93.75
68871;BME280;55906;52.278;6.808;2023-02-19T08:18:06;101997.22;;;8.86;93.28
68871;BME280;55906;52.278;6.808;2023-02-19T08:20:33;101997.09;;;8.66;93.34
68871;BME280;55906;52.278;6.808;2023-02-19T08:22:59;102009.38;;;8.68;93.31
68871;BME280;55906;52.278;6.808;2023-02-19T08:25:26;102003.09;;;8.48;93.11
68871;BME280;55906;52.278;6.808;2023-02-19T08:27:53;102013.00;;;8.53;94.08
68871;BME280;55906;52.278;6.808;2023-02-19T08:30:20;102025.88;;;8.49;94.13
68871;BME280;55906;52.278;6.808;2023-02-19T08:32:47;102029.66;;;8.54;93.63
68871;BME280;55906;52.278;6.808;2023-02-19T08:35:15;102032.69;;;8.45;93.68
68871;BME280;55906;52.278;6.808;2023-02-19T08:37:42;102035.56;;;8.50;93.71
68871;BME280;55906;52.278;6.808;2023-02-19T08:40:09;102034.00;;;8.53;93.61
68871;BME280;55906;52.278;6.808;2023-02-19T08:42:36;102053.59;;;8.44;93.35
68871;BME280;55906;52.278;6.808;2023-02-19T08:45:04;102051.78;;;8.43;93.52
68871;BME280;55906;52.278;6.808;2023-02-19T08:47:31;102053.75;;;8.47;93.26
68871;BME280;55906;52.278;6.808;2023-02-19T08:49:59;102058.75;;;8.42;93.41
68871;BME280;55906;52.278;6.808;2023-02-19T08:52:28;102068.00;;;8.52;93.41
68871;BME280;55906;52.278;6.808;2023-02-19T08:54:54;102068.91;;;8.52;92.67
68871;BME280;55906;52.278;6.808;2023-02-19T08:57:22;102069.97;;;8.56;92.65
68871;BME280;55906;52.278;6.808;2023-02-19T08:59:49;102075.22;;;8.56;92.66
68871;BME280;55906;52.278;6.808;2023-02-19T09:02:15;102082.44;;;8.60;92.71
68871;BME280;55906;52.278;6.808;2023-02-19T09:04:42;102086.44;;;8.70;92.21
68871;BME280;55906;52.278;6.808;2023-02-19T09:07:09;102092.09;;;8.77;91.87
68871;BME280;55906;52.278;6.808;2023-02-19T09:09:39;102101.44;;;8.72;91.42
68871;BME280;55906;52.278;6.808;2023-02-19T09:12:06;102100.63;;;8.73;90.91
68871;BME280;55906;52.278;6.808;2023-02-19T09:14:34;102114.56;;;8.72;91.74
68871;BME280;55906;52.278;6.808;2023-02-19T09:17:02;102103.00;;;8.85;90.87
68871;BME280;55906;52.278;6.808;2023-02-19T09:19:30;102111.34;;;8.94;91.27
68871;BME280;55906;52.278;6.808;2023-02-19T09:21:57;102107.00;;;8.94;90.99
68871;BME280;55906;52.278;6.808;2023-02-19T09:24:24;102118.16;;;8.90;90.89
68871;BME280;55906;52.278;6.808;2023-02-19T09:26:53;102119.38;;;8.97;90.15
68871;BME280;55906;52.278;6.808;2023-02-19T09:29:21;102126.66;;;9.03;90.17
68871;BME280;55906;52.278;6.808;2023-02-19T09:31:49;102138.31;;;9.08;89.35
68871;BME280;55906;52.278;6.808;2023-02-19T09:34:15;102150.81;;;9.12;89.50
68871;BME280;55906;52.278;6.808;2023-02-19T09:36:42;102160.28;;;9.10;88.12
68871;BME280;55906;52.278;6.808;2023-02-19T09:39:09;102170.72;;;9.24;89.09
68871;BME280;55906;52.278;6.808;2023-02-19T09:41:38;102174.34;;;9.26;87.96
68871;BME280;55906;52.278;6.808;2023-02-19T09:44:12;102182.06;;;9.23;88.84
68871;BME280;55906;52.278;6.808;2023-02-19T09:46:42;102195.34;;;9.26;88.75
68871;BME280;55906;52.278;6.808;2023-02-19T09:49:13;102198.38;;;9.18;86.86
68871;BME280;55906;52.278;6.808;2023-02-19T09:51:43;102201.81;;;9.33;87.67
68871;BME280;55906;52.278;6.808;2023-02-19T09:54:22;102199.31;;;9.52;87.01
68871;BME280;55906;52.278;6.808;2023-02-19T09:56:50;102204.38;;;9.66;86.86
68871;BME280;55906;52.278;6.808;2023-02-19T09:59:23;102212.28;;;9.49;83.10
68871;BME280;55906;52.278;6.808;2023-02-19T10:01:55;102199.78;;;9.61;84.83
68871;BME280;55906;52.278;6.808;2023-02-19T10:04:24;102199.59;;;9.75;82.43
68871;BME280;55906;52.278;6.808;2023-02-19T10:06:51;102205.84;;;10.12;83.74
68871;BME280;55906;52.278;6.808;2023-02-19T10:09:24;102215.50;;;10.30;83.31
68871;BME280;55906;52.278;6.808;2023-02-19T10:11:53;102230.81;;;10.20;82.14
68871;BME280;55906;52.278;6.808;2023-02-19T10:14:28;102226.88;;;10.12;81.41
68871;BME280;55906;52.278;6.808;2023-02-19T10:16:58;102231.88;;;10.24;82.59
68871;BME280;55906;52.278;6.808;2023-02-19T10:19:26;102224.34;;;10.32;82.98
68871;BME280;55906;52.278;6.808;2023-02-19T10:21:53;102226.09;;;10.49;80.47
68871;BME280;55906;52.278;6.808;2023-02-19T10:24:24;102238.00;;;10.41;80.67
68871;BME280;55906;52.278;6.808;2023-02-19T10:26:52;102223.97;;;10.60;81.82
68871;BME280;55906;52.278;6.808;2023-02-19T10:29:19;102239.63;;;10.56;81.30
68871;BME280;55906;52.278;6.808;2023-02-19T10:31:47;102248.94;;;10.68;81.60
68871;BME280;55906;52.278;6.808;2023-02-19T10:34:18;102260.31;;;10.49;79.68
68871;BME280;55906;52.278;6.808;2023-02-19T10:36:47;102256.22;;;10.38;79.42
68871;BME280;55906;52.278;6.808;2023-02-19T10:39:32;102260.31;;;10.49;79.33
68871;BME280;55906;52.278;6.808;2023-02-19T10:42:03;102256.28;;;10.39;80.88
68871;BME280;55906;52.278;6.808;2023-02-19T10:44:34;102255.34;;;10.55;78.84
68871;BME280;55906;52.278;6.808;2023-02-19T10:47:05;102257.81;;;10.70;78.61
68871;BME280;55906;52.278;6.808;2023-02-19T10:49:35;102255.28;;;10.90;79.25
68871;BME280;55906;52.278;6.808;2023-02-19T10:52:11;102262.84;;;11.02;78.67
68871;BME280;55906;52.278;6.808;2023-02-19T10:54:42;102284.09;;;10.87;78.19
68871;BME280;55906;52.278;6.808;2023-02-19T10:57:22;102275.97;;;10.83;77.00
68871;BME280;55906;52.278;6.808;2023-02-19T10:59:55;102272.69;;;10.69;78.58
68871;BME280;55906;52.278;6.808;2023-02-19T11:02:24;102280.34;;;10.82;77.43
68871;BME280;55906;52.278;6.808;2023-02-19T11:05:05;102270.88;;;11.05;75.87
68871;BME280;55906;52.278;6.808;2023-02-19T11:07:33;102273.59;;;11.26;76.92
68871;BME280;55906;52.278;6.808;2023-02-19T11:10:02;102263.56;;;11.17;73.87
68871;BME280;55906;52.278;6.808;2023-02-19T11:12:31;102269.44;;;11.31;76.08
68871;BME280;55906;52.278;6.808;2023-02-19T11:15:02;102267.22;;;11.60;75.84
68871;BME280;55906;52.278;6.808;2023-02-19T11:17:40;102275.28;;;11.82;75.93
68871;BME280;55906;52.278;6.808;2023-02-19T11:20:13;102269.25;;;12.05;73.55
68871;BME280;55906;52.278;6.808;2023-02-19T11:22:43;102267.31;;;12.22;73.35
68871;BME280;55906;52.278;6.808;2023-02-19T11:25:18;102274.50;;;12.47;73.96
68871;BME280;55906;52.278;6.808;2023-02-19T11:27:54;102276.03;;;12.63;73.29
68871;BME280;55906;52.278;6.808;2023-02-19T11:30:33;102270.81;;;12.64;71.46
68871;BME280;55906;52.278;6.808;2023-02-19T11:33:23;102268.53;;;12.73;71.76
68871;BME280;55906;52.278;6.808;2023-02-19T11:35:54;102272.13;;;12.75;71.58
68871;BME280;55906;52.278;6.808;2023-02-19T11:38:23;102275.81;;;13.01;73.04
68871;BME280;55906;52.278;6.808;2023-02-19T11:40:53;102268.66;;;12.99;69.19
68871;BME280;55906;52.278;6.808;2023-02-19T11:43:56;102272.84;;;13.38;69.37
68871;BME280;55906;52.278;6.808;2023-02-19T11:46:34;102279.25;;;13.21;65.34
68871;BME280;55906;52.278;6.808;2023-02-19T11:49:16;102272.06;;;13.17;67.99
68871;BME280;55906;52.278;6.808;2023-02-19T11:52:05;102276.91;;;13.53;67.46
68871;BME280;55906;52.278;6.808;2023-02-19T11:54:49;102284.78;;;13.05;66.09
68871;BME280;55906;52.278;6.808;2023-02-19T11:57:29;102277.69;;;13.26;63.33
68871;BME280;55906;52.278;6.808;2023-02-19T12:00:11;102288.06;;;13.44;67.77
68871;BME280;55906;52.278;6.808;2023-02-19T12:03:08;102288.88;;;13.67;66.76
68871;BME280;55906;52.278;6.808;2023-02-19T12:06:00;102285.09;;;13.84;64.48
68871;BME280;55906;52.278;6.808;2023-02-19T12:08:59;102282.13;;;13.75;63.86
68871;BME280;55906;52.278;6.808;2023-02-19T12:14:39;102292.88;;;13.56;62.76
68871;BME280;55906;52.278;6.808;2023-02-19T12:17:29;102292.81;;;13.30;63.00
68871;BME280;55906;52.278;6.808;2023-02-19T12:20:05;102286.69;;;13.31;65.54
68871;BME280;55906;52.278;6.808;2023-02-19T12:22:39;102283.19;;;13.10;64.36
68871;BME280;55906;52.278;6.808;2023-02-19T12:25:25;102276.47;;;12.96;63.15
68871;BME280;55906;52.278;6.808;2023-02-19T12:28:07;102278.25;;;12.74;65.00
68871;BME280;55906;52.278;6.808;2023-02-19T12:31:01;102280.59;;;12.89;64.48
68871;BME280;55906;52.278;6.808;2023-02-19T12:34:00;102295.00;;;12.97;62.04
68871;BME280;55906;52.278;6.808;2023-02-19T12:36:36;102287.00;;;13.17;65.53
68871;BME280;55906;52.278;6.808;2023-02-19T12:39:15;102292.81;;;13.30;64.84
68871;BME280;55906;52.278;6.808;2023-02-19T12:41:47;102303.97;;;13.45;65.05
68871;BME280;55906;52.278;6.808;2023-02-19T12:44:21;102299.69;;;13.49;64.32
68871;BME280;55906;52.278;6.808;2023-02-19T12:46:56;102299.03;;;13.55;64.14
68871;BME280;55906;52.278;6.808;2023-02-19T12:49:29;102295.31;;;13.50;63.55
68871;BME280;55906;52.278;6.808;2023-02-19T12:52:00;102301.09;;;13.63;64.47
68871;BME280;55906;52.278;6.808;2023-02-19T12:54:33;102293.03;;;13.84;62.72
68871;BME280;55906;52.278;6.808;2023-02-19T12:57:05;102289.13;;;13.49;62.26
68871;BME280;55906;52.278;6.808;2023-02-19T12:59:39;102297.53;;;13.87;63.18
68871;BME280;55906;52.278;6.808;2023-02-19T13:02:14;102294.19;;;13.92;62.21
68871;BME280;55906;52.278;6.808;2023-02-19T13:04:46;102301.44;;;13.98;62.55
68871;BME280;55906;52.278;6.808;2023-02-19T13:07:22;102312.50;;;13.86;61.79
68871;BME280;55906;52.278;6.808;2023-02-19T13:09:54;102317.78;;;13.38;60.73
68871;BME280;55906;52.278;6.808;2023-02-19T13:12:25;102320.72;;;13.46;63.46
68871;BME280;55906;52.278;6.808;2023-02-19T13:14:56;102316.38;;;13.24;63.85
68871;BME280;55906;52.278;6.808;2023-02-19T13:17:28;102322.97;;;13.35;63.50